Flight Track Log - Related Links

Times and Time Zones

All times are in EDT time to prevent confusion due to time zone crossing. See the AAL1743 flight status page for this flight to view local times or setup timezone preferences in your user account.

Time Position Orientation Groundspeed Altitude Reporting Facility
EDT Latitude Longitude Course Direction KTS MPH feet Rate Location/Type
Mon 10:28:15 AM 30.2123 -97.6659 335° Northwest  Level FlightAware Approximate
Mon 10:29:15 AM 30.2833 -97.6502 231° Southwest  Level FlightAware Approximate
Mon 10:29:48 AM 30.2558 -97.6897 330° Northwest 407 468 2,900  Level Houston Center
Mon 10:30:48 AM 30.3106 -97.7267 338° Northwest 323 372 4,900 2,200 Climbing Houston Center
Mon 10:31:48 AM 30.3822 -97.7600 338° Northwest 258 297 7,300 2,900 Climbing Houston Center
Mon 10:32:48 AM 30.4517 -97.7928 338° Northwest 269 310 10,700 2,550 Climbing Houston Center
Mon 10:33:48 AM 30.5272 -97.8289 337° Northwest 268 308 12,400 2,300 Climbing Houston Center
Mon 10:34:48 AM 30.6128 -97.8703 337° Northwest 306 352 15,300 2,750 Climbing Houston Center
Mon 10:35:48 AM 30.7025 -97.9144 339° North 336 387 17,900 2,450 Climbing Houston Center
Mon 10:36:48 AM 30.7964 -97.9564 338° Northwest 352 405 20,200 2,550 Climbing Houston Center
Mon 10:37:48 AM 30.8903 -98.0011 337° Northwest 358 412 23,000 1,175 Climbing Houston Center
Mon 10:39:11 AM 31.0217 -98.0653 339° North 374 430 23,000  Level Fort Worth Center
Mon 10:40:11 AM 31.1194 -98.1097 11° North 374 430 23,000  Level Fort Worth Center
Mon 10:41:11 AM 31.2219 -98.0861 17° North 357 411 23,000  Level Fort Worth Center
Mon 10:42:11 AM 31.3222 -98.0506 17° North 370 426 23,000  Level Fort Worth Center
Mon 10:43:12 AM 31.4142 -98.0169 18° North 376 433 23,000  Level Fort Worth Center
Mon 10:44:11 AM 31.5147 -97.9786 18° North 376 433 23,000  Level Fort Worth Center
Mon 10:45:12 AM 31.6150 -97.9403 17° North 376 433 23,000  Level Fort Worth Center
Mon 10:46:12 AM 31.7133 -97.9042 18° North 376 433 23,000 -706 Level Fort Worth Center
Mon 10:47:11 AM 31.8136 -97.8656 18° North 381 438 21,600 -1,815 Descending Fort Worth Center
Mon 10:48:11 AM 31.9183 -97.8244 19° North 363 418 19,400 -1,934 Descending Fort Worth Center
Mon 10:49:12 AM 31.9997 -97.7906 18° North 350 403 17,700 -1,983 Descending Fort Worth Center
Mon 10:50:12 AM 32.0958 -97.7542 16° North 335 386 15,400 -2,182 Descending Fort Worth Center
Mon 10:51:13 AM 32.1811 -97.7253 17° North 328 377 13,300 -1,981 Descending FAA TRACON SMA TRACON (SMA)
Mon 10:51:55 AM 32.2403 -97.7036 19° North 319 367 12,000 -1,683 Descending FAA TRACON SMA TRACON (SMA)
Mon 10:52:35 AM 32.2964 -97.6803 22° Northeast 311 358 11,000 -1,111 Descending FAA TRACON SMA TRACON (SMA)
Mon 10:53:16 AM 32.3419 -97.6583 44° Northeast 287 330 10,500 -1,077 Descending FAA TRACON SMA TRACON (SMA)
Mon 10:53:53 AM 32.3817 -97.6131 45° Northeast 286 329 9,600 -1,538 Descending FAA TRACON SMA TRACON (SMA)
Mon 10:54:34 AM 32.4203 -97.5678 47° Northeast 284 327 8,500 -1,407 Descending FAA TRACON SMA TRACON (SMA)
Mon 10:55:14 AM 32.4533 -97.5258 57° Northeast 282 325 7,700 -1,291 Descending FAA TRACON SMA TRACON (SMA)
Mon 10:55:53 AM 32.4819 -97.4731 65° Northeast 279 321 6,800 -1,350 Descending FAA TRACON SMA TRACON (SMA)
Mon 10:56:34 AM 32.5039 -97.4161 64° Northeast 276 318 5,900 -1,125 Descending FAA TRACON SMA TRACON (SMA)
Mon 10:57:13 AM 32.5236 -97.3678 65° Northeast 268 308 5,300 -684 Descending FAA TRACON SMA TRACON (SMA)
Mon 10:57:53 AM 32.5450 -97.3136 66° East 261 300 5,000 -220 Descending FAA TRACON SMA TRACON (SMA)
Mon 10:58:35 AM 32.5656 -97.2597 65° Northeast 258 297 5,000 -296 Level FAA TRACON SMA TRACON (SMA)
Mon 10:59:14 AM 32.5844 -97.2111 65° Northeast 262 302 4,600 -608 Descending FAA TRACON SMA TRACON (SMA)
Mon 10:59:54 AM 32.6056 -97.1575 62° Northeast 258 297 4,200 -608 Descending FAA TRACON SMA TRACON (SMA)
Mon 11:00:33 AM 32.6286 -97.1069 22° Northeast 251 289 3,800 -615 Descending FAA TRACON SMA TRACON (SMA)
Mon 11:01:12 AM 32.6672 -97.0886 17° North 244 281 3,400 -615 Descending FAA TRACON SMA TRACON (SMA)
Mon 11:01:51 AM 32.7083 -97.0736 17° North 219 252 3,000 -615 Descending FAA TRACON SMA TRACON (SMA)

Login

Don't have an account? Register now (free) for customized features, flight alerts, and more!